sensor_id;sensor_type;location;lat;lon;timestamp;pressure;altitude;pressure_sealevel;temperature;humidity
83664;BME280;73634;47.068;15.426;2023-11-19T00:01:58;97957.19;;;3.63;60.36
83664;BME280;73634;47.068;15.426;2023-11-19T00:04:24;97950.50;;;3.74;60.42
83664;BME280;73634;47.068;15.426;2023-11-19T00:06:49;97942.78;;;3.74;60.06
83664;BME280;73634;47.068;15.426;2023-11-19T00:09:15;97945.31;;;3.62;59.78
83664;BME280;73634;47.068;15.426;2023-11-19T00:11:43;97942.97;;;3.60;60.22
83664;BME280;73634;47.068;15.426;2023-11-19T00:14:08;97936.81;;;3.61;60.14
83664;BME280;73634;47.068;15.426;2023-11-19T00:16:34;97941.63;;;3.58;60.08
83664;BME280;73634;47.068;15.426;2023-11-19T00:21:58;97934.94;;;3.57;59.51
83664;BME280;73634;47.068;15.426;2023-11-19T00:24:27;97934.78;;;3.52;60.54
83664;BME280;73634;47.068;15.426;2023-11-19T00:26:53;97926.06;;;3.53;60.39
83664;BME280;73634;47.068;15.426;2023-11-19T00:29:18;97921.03;;;3.46;60.45
83664;BME280;73634;47.068;15.426;2023-11-19T00:31:45;97926.38;;;3.45;60.44
83664;BME280;73634;47.068;15.426;2023-11-19T00:34:10;97907.03;;;3.42;59.98
83664;BME280;73634;47.068;15.426;2023-11-19T00:36:36;97916.84;;;3.33;60.50
83664;BME280;73634;47.068;15.426;2023-11-19T00:39:01;97907.69;;;3.38;60.95
83664;BME280;73634;47.068;15.426;2023-11-19T00:41:27;97913.75;;;3.43;61.27
83664;BME280;73634;47.068;15.426;2023-11-19T00:47:10;97933.66;;;3.48;61.63
83664;BME280;73634;47.068;15.426;2023-11-19T00:49:35;97913.66;;;3.50;61.97
83664;BME280;73634;47.068;15.426;2023-11-19T00:52:00;97917.31;;;3.42;61.34
83664;BME280;73634;47.068;15.426;2023-11-19T00:54:27;97908.03;;;3.41;60.98
83664;BME280;73634;47.068;15.426;2023-11-19T00:56:53;97906.47;;;3.40;61.51
83664;BME280;73634;47.068;15.426;2023-11-19T00:59:18;97898.66;;;3.47;61.59
83664;BME280;73634;47.068;15.426;2023-11-19T01:01:44;97888.94;;;3.49;60.71
83664;BME280;73634;47.068;15.426;2023-11-19T01:04:09;97884.22;;;3.46;60.58
83664;BME280;73634;47.068;15.426;2023-11-19T01:06:35;97884.78;;;3.48;60.72
83664;BME280;73634;47.068;15.426;2023-11-19T01:09:00;97898.09;;;3.45;61.03
83664;BME280;73634;47.068;15.426;2023-11-19T01:13:22;97914.66;;;3.49;60.83
83664;BME280;73634;47.068;15.426;2023-11-19T01:15:47;97909.06;;;3.52;61.17
83664;BME280;73634;47.068;15.426;2023-11-19T01:18:13;97902.34;;;3.51;60.33
83664;BME280;73634;47.068;15.426;2023-11-19T01:20:39;97886.94;;;3.51;60.97
83664;BME280;73634;47.068;15.426;2023-11-19T01:23:04;97885.97;;;3.33;61.00
83664;BME280;73634;47.068;15.426;2023-11-19T01:25:30;97874.81;;;3.40;61.78
83664;BME280;73634;47.068;15.426;2023-11-19T01:27:55;97866.78;;;3.48;61.12
83664;BME280;73634;47.068;15.426;2023-11-19T01:30:23;97872.38;;;3.45;61.21
83664;BME280;73634;47.068;15.426;2023-11-19T01:32:49;97868.22;;;3.44;61.33
83664;BME280;73634;47.068;15.426;2023-11-19T01:38:47;97857.81;;;3.39;61.16
83664;BME280;73634;47.068;15.426;2023-11-19T01:41:12;97851.09;;;3.38;61.42
83664;BME280;73634;47.068;15.426;2023-11-19T01:43:39;97845.38;;;3.35;61.66
83664;BME280;73634;47.068;15.426;2023-11-19T01:46:08;97836.09;;;3.34;61.79
83664;BME280;73634;47.068;15.426;2023-11-19T01:48:39;97845.16;;;3.37;62.14
83664;BME280;73634;47.068;15.426;2023-11-19T01:51:06;97833.88;;;3.38;62.16
83664;BME280;73634;47.068;15.426;2023-11-19T01:53:33;97827.94;;;3.38;63.02
83664;BME280;73634;47.068;15.426;2023-11-19T01:56:00;97825.94;;;3.40;62.60
83664;BME280;73634;47.068;15.426;2023-11-19T01:58:26;97828.34;;;3.23;63.12
83664;BME280;73634;47.068;15.426;2023-11-19T02:00:52;97823.00;;;3.24;63.52
83664;BME280;73634;47.068;15.426;2023-11-19T02:05:45;97809.69;;;3.27;63.69
83664;BME280;73634;47.068;15.426;2023-11-19T02:08:14;97803.00;;;3.26;64.07
83664;BME280;73634;47.068;15.426;2023-11-19T02:10:39;97807.34;;;3.26;64.78
83664;BME280;73634;47.068;15.426;2023-11-19T02:13:04;97795.06;;;3.16;65.30
83664;BME280;73634;47.068;15.426;2023-11-19T02:15:32;97789.78;;;3.11;66.02
83664;BME280;73634;47.068;15.426;2023-11-19T02:17:57;97783.97;;;3.04;66.95
83664;BME280;73634;47.068;15.426;2023-11-19T02:20:42;97782.16;;;3.05;67.27
83664;BME280;73634;47.068;15.426;2023-11-19T02:23:07;97782.69;;;2.95;67.55
83664;BME280;73634;47.068;15.426;2023-11-19T02:25:33;97774.84;;;2.90;67.97
83664;BME280;73634;47.068;15.426;2023-11-19T02:28:00;97773.28;;;2.77;68.74
83664;BME280;73634;47.068;15.426;2023-11-19T02:33:02;97760.31;;;2.84;68.92
83664;BME280;73634;47.068;15.426;2023-11-19T02:35:31;97761.66;;;2.86;69.42
83664;BME280;73634;47.068;15.426;2023-11-19T02:37:58;97764.22;;;2.75;69.73
83664;BME280;73634;47.068;15.426;2023-11-19T02:40:29;97761.31;;;2.83;70.24
83664;BME280;73634;47.068;15.426;2023-11-19T02:42:54;97766.16;;;2.91;69.62
83664;BME280;73634;47.068;15.426;2023-11-19T02:45:22;97762.44;;;2.87;69.93
83664;BME280;73634;47.068;15.426;2023-11-19T02:47:48;97755.38;;;2.82;70.53
83664;BME280;73634;47.068;15.426;2023-11-19T02:50:13;97743.78;;;2.80;70.58
83664;BME280;73634;47.068;15.426;2023-11-19T02:52:42;97743.44;;;2.76;70.83
83664;BME280;73634;47.068;15.426;2023-11-19T02:55:08;97736.03;;;2.68;71.30
83664;BME280;73634;47.068;15.426;2023-11-19T03:00:22;97732.59;;;2.44;72.79
83664;BME280;73634;47.068;15.426;2023-11-19T03:03:00;97723.88;;;2.45;72.41
83664;BME280;73634;47.068;15.426;2023-11-19T03:05:35;97717.31;;;2.49;72.64
83664;BME280;73634;47.068;15.426;2023-11-19T03:08:00;97723.94;;;2.57;72.60
83664;BME280;73634;47.068;15.426;2023-11-19T03:10:25;97720.94;;;2.60;72.62
83664;BME280;73634;47.068;15.426;2023-11-19T03:12:51;97711.00;;;2.63;72.41
83664;BME280;73634;47.068;15.426;2023-11-19T03:15:19;97717.28;;;2.67;72.01
83664;BME280;73634;47.068;15.426;2023-11-19T03:17:46;97722.28;;;2.62;72.10
83664;BME280;73634;47.068;15.426;2023-11-19T03:20:11;97714.72;;;2.67;72.03
83664;BME280;73634;47.068;15.426;2023-11-19T03:22:41;97709.88;;;2.59;72.29
83664;BME280;73634;47.068;15.426;2023-11-19T03:26:50;97700.00;;;2.75;71.30
83664;BME280;73634;47.068;15.426;2023-11-19T03:29:15;97693.41;;;2.79;71.27
83664;BME280;73634;47.068;15.426;2023-11-19T03:31:44;97688.94;;;2.74;71.01
83664;BME280;73634;47.068;15.426;2023-11-19T03:34:12;97687.72;;;2.77;70.73
83664;BME280;73634;47.068;15.426;2023-11-19T03:36:38;97676.53;;;2.83;70.61
83664;BME280;73634;47.068;15.426;2023-11-19T03:39:03;97676.88;;;2.86;70.55
83664;BME280;73634;47.068;15.426;2023-11-19T03:41:29;97670.38;;;2.84;70.57
83664;BME280;73634;47.068;15.426;2023-11-19T03:43:54;97666.47;;;2.81;70.65
83664;BME280;73634;47.068;15.426;2023-11-19T03:46:21;97649.47;;;2.80;70.70
83664;BME280;73634;47.068;15.426;2023-11-19T03:48:50;97657.19;;;2.68;70.96
83664;BME280;73634;47.068;15.426;2023-11-19T03:53:52;97652.03;;;2.57;71.57
83664;BME280;73634;47.068;15.426;2023-11-19T03:56:17;97650.81;;;2.59;71.54
83664;BME280;73634;47.068;15.426;2023-11-19T03:58:43;97650.38;;;2.62;71.26
83664;BME280;73634;47.068;15.426;2023-11-19T04:01:12;97649.59;;;2.74;70.55
83664;BME280;73634;47.068;15.426;2023-11-19T04:03:40;97650.72;;;2.89;70.21
83664;BME280;73634;47.068;15.426;2023-11-19T04:06:05;97641.78;;;2.92;69.61
83664;BME280;73634;47.068;15.426;2023-11-19T04:08:31;97638.56;;;2.96;69.77
83664;BME280;73634;47.068;15.426;2023-11-19T04:10:56;97635.88;;;2.91;69.74
83664;BME280;73634;47.068;15.426;2023-11-19T04:13:23;97633.31;;;2.91;69.55
83664;BME280;73634;47.068;15.426;2023-11-19T04:18:45;97614.09;;;3.06;68.98
83664;BME280;73634;47.068;15.426;2023-11-19T04:21:11;97612.75;;;3.03;69.25
83664;BME280;73634;47.068;15.426;2023-11-19T04:23:36;97610.28;;;3.08;69.35
83664;BME280;73634;47.068;15.426;2023-11-19T04:26:03;97617.66;;;3.05;69.01
83664;BME280;73634;47.068;15.426;2023-11-19T04:28:30;97610.06;;;2.98;69.41
83664;BME280;73634;47.068;15.426;2023-11-19T04:30:55;97612.63;;;2.98;69.29
83664;BME280;73634;47.068;15.426;2023-11-19T04:33:20;97606.50;;;2.99;69.94
83664;BME280;73634;47.068;15.426;2023-11-19T04:35:46;97607.38;;;2.93;69.89
83664;BME280;73634;47.068;15.426;2023-11-19T04:38:11;97614.97;;;2.88;70.12
83664;BME280;73634;47.068;15.426;2023-11-19T04:43:26;97608.59;;;2.90;69.75
83664;BME280;73634;47.068;15.426;2023-11-19T04:45:52;97610.41;;;2.90;69.52
83664;BME280;73634;47.068;15.426;2023-11-19T04:48:17;97600.34;;;2.88;70.47
83664;BME280;73634;47.068;15.426;2023-11-19T04:50:42;97600.44;;;2.82;70.89
83664;BME280;73634;47.068;15.426;2023-11-19T04:53:08;97589.53;;;2.75;71.74
83664;BME280;73634;47.068;15.426;2023-11-19T04:55:33;97599.13;;;2.79;71.79
83664;BME280;73634;47.068;15.426;2023-11-19T04:57:59;97603.38;;;2.74;71.95
83664;BME280;73634;47.068;15.426;2023-11-19T05:00:24;97599.00;;;2.62;72.48
83664;BME280;73634;47.068;15.426;2023-11-19T05:02:51;97596.09;;;2.59;72.60
83664;BME280;73634;47.068;15.426;2023-11-19T05:07:52;97572.97;;;2.59;72.83
83664;BME280;73634;47.068;15.426;2023-11-19T05:10:17;97584.91;;;2.53;72.83
83664;BME280;73634;47.068;15.426;2023-11-19T05:12:43;97583.69;;;2.56;72.80
83664;BME280;73634;47.068;15.426;2023-11-19T05:15:08;97582.69;;;2.57;72.68
83664;BME280;73634;47.068;15.426;2023-11-19T05:17:34;97568.06;;;2.57;72.64
83664;BME280;73634;47.068;15.426;2023-11-19T05:19:59;97564.69;;;2.57;73.02
83664;BME280;73634;47.068;15.426;2023-11-19T05:22:25;97558.56;;;2.58;72.64
83664;BME280;73634;47.068;15.426;2023-11-19T05:24:51;97552.66;;;2.57;72.53
83664;BME280;73634;47.068;15.426;2023-11-19T05:27:17;97540.81;;;2.56;72.79
83664;BME280;73634;47.068;15.426;2023-11-19T05:29:43;97548.72;;;2.55;72.81
83664;BME280;73634;47.068;15.426;2023-11-19T05:34:47;97546.63;;;2.63;72.34
83664;BME280;73634;47.068;15.426;2023-11-19T05:37:12;97548.63;;;2.61;72.48
83664;BME280;73634;47.068;15.426;2023-11-19T05:39:37;97553.09;;;2.54;73.07
83664;BME280;73634;47.068;15.426;2023-11-19T05:42:03;97551.75;;;2.63;72.71
83664;BME280;73634;47.068;15.426;2023-11-19T05:44:29;97555.88;;;2.64;72.92
83664;BME280;73634;47.068;15.426;2023-11-19T05:46:54;97553.53;;;2.63;73.03
83664;BME280;73634;47.068;15.426;2023-11-19T05:49:19;97561.25;;;2.75;72.29
83664;BME280;73634;47.068;15.426;2023-11-19T05:51:45;97548.06;;;2.71;72.56
83664;BME280;73634;47.068;15.426;2023-11-19T05:54:11;97531.78;;;2.77;72.33
83664;BME280;73634;47.068;15.426;2023-11-19T05:58:43;97532.09;;;2.81;71.69
83664;BME280;73634;47.068;15.426;2023-11-19T06:01:09;97546.03;;;2.85;71.52
83664;BME280;73634;47.068;15.426;2023-11-19T06:03:35;97536.22;;;2.93;70.72
83664;BME280;73634;47.068;15.426;2023-11-19T06:06:01;97525.81;;;3.00;71.69
83664;BME280;73634;47.068;15.426;2023-11-19T06:08:27;97525.59;;;3.01;71.23
83664;BME280;73634;47.068;15.426;2023-11-19T06:10:52;97518.22;;;3.05;70.84
83664;BME280;73634;47.068;15.426;2023-11-19T06:13:18;97511.50;;;3.04;70.98
83664;BME280;73634;47.068;15.426;2023-11-19T06:15:43;97502.91;;;3.10;70.77
83664;BME280;73634;47.068;15.426;2023-11-19T06:18:08;97496.28;;;3.14;70.48
83664;BME280;73634;47.068;15.426;2023-11-19T06:22:53;97519.69;;;2.89;71.04
83664;BME280;73634;47.068;15.426;2023-11-19T06:25:19;97523.97;;;2.72;71.88
83664;BME280;73634;47.068;15.426;2023-11-19T06:27:44;97520.38;;;2.73;71.52
83664;BME280;73634;47.068;15.426;2023-11-19T06:30:10;97518.47;;;2.57;71.71
83664;BME280;73634;47.068;15.426;2023-11-19T06:32:36;97524.50;;;2.62;72.11
83664;BME280;73634;47.068;15.426;2023-11-19T06:35:02;97516.91;;;2.79;71.42
83664;BME280;73634;47.068;15.426;2023-11-19T06:37:30;97505.94;;;2.84;71.28
83664;BME280;73634;47.068;15.426;2023-11-19T06:39:55;97504.91;;;2.96;70.62
83664;BME280;73634;47.068;15.426;2023-11-19T06:42:20;97516.44;;;2.94;70.46
83664;BME280;73634;47.068;15.426;2023-11-19T06:47:50;97512.41;;;2.86;70.79
83664;BME280;73634;47.068;15.426;2023-11-19T06:50:15;97508.94;;;2.92;70.63
83664;BME280;73634;47.068;15.426;2023-11-19T06:52:40;97497.88;;;3.04;70.79
83664;BME280;73634;47.068;15.426;2023-11-19T06:55:06;97495.97;;;3.11;69.90
83664;BME280;73634;47.068;15.426;2023-11-19T06:57:32;97504.72;;;3.26;69.09
83664;BME280;73634;47.068;15.426;2023-11-19T06:59:58;97503.69;;;3.39;69.01
83664;BME280;73634;47.068;15.426;2023-11-19T07:02:24;97503.75;;;3.56;67.79
83664;BME280;73634;47.068;15.426;2023-11-19T07:04:49;97517.44;;;3.73;67.16
83664;BME280;73634;47.068;15.426;2023-11-19T07:07:15;97510.75;;;3.89;67.05
83664;BME280;73634;47.068;15.426;2023-11-19T07:09:40;97506.63;;;4.05;65.91
83664;BME280;73634;47.068;15.426;2023-11-19T07:14:46;97520.91;;;3.95;67.21
83664;BME280;73634;47.068;15.426;2023-11-19T07:17:12;97516.13;;;4.04;66.24
83664;BME280;73634;47.068;15.426;2023-11-19T07:19:37;97522.19;;;4.26;65.42
83664;BME280;73634;47.068;15.426;2023-11-19T07:22:03;97513.41;;;5.43;61.87
83664;BME280;73634;47.068;15.426;2023-11-19T07:24:29;97513.22;;;5.77;60.08
83664;BME280;73634;47.068;15.426;2023-11-19T07:26:54;97508.13;;;5.55;60.39
83664;BME280;73634;47.068;15.426;2023-11-19T07:29:20;97514.03;;;4.90;62.20
83664;BME280;73634;47.068;15.426;2023-11-19T07:31:48;97498.97;;;4.60;63.48
83664;BME280;73634;47.068;15.426;2023-11-19T07:34:14;97483.72;;;3.58;67.40
83664;BME280;73634;47.068;15.426;2023-11-19T07:36:40;97467.66;;;3.51;67.90
83664;BME280;73634;47.068;15.426;2023-11-19T07:41:27;97408.09;;;3.42;68.45
83664;BME280;73634;47.068;15.426;2023-11-19T07:43:52;97441.47;;;3.54;68.38
83664;BME280;73634;47.068;15.426;2023-11-19T07:46:18;97462.94;;;3.76;67.12
83664;BME280;73634;47.068;15.426;2023-11-19T07:48:46;97477.03;;;3.57;67.85
83664;BME280;73634;47.068;15.426;2023-11-19T07:51:13;97482.94;;;3.29;68.73
83664;BME280;73634;47.068;15.426;2023-11-19T07:53:39;97489.75;;;3.23;69.53
83664;BME280;73634;47.068;15.426;2023-11-19T07:56:06;97499.00;;;3.36;69.00
83664;BME280;73634;47.068;15.426;2023-11-19T07:58:32;97471.84;;;3.85;67.87
83664;BME280;73634;47.068;15.426;2023-11-19T08:00:57;97464.19;;;4.24;66.48
83664;BME280;73634;47.068;15.426;2023-11-19T08:06:23;97494.16;;;3.51;68.38
83664;BME280;73634;47.068;15.426;2023-11-19T08:08:49;97501.44;;;3.43;69.34
83664;BME280;73634;47.068;15.426;2023-11-19T08:11:15;97497.13;;;4.22;66.81
83664;BME280;73634;47.068;15.426;2023-11-19T08:13:40;97505.28;;;4.91;64.06
83664;BME280;73634;47.068;15.426;2023-11-19T08:16:06;97490.13;;;5.65;61.05
83664;BME280;73634;47.068;15.426;2023-11-19T08:18:31;97485.63;;;5.28;62.63
83664;BME280;73634;47.068;15.426;2023-11-19T08:20:57;97496.81;;;5.12;62.98
83664;BME280;73634;47.068;15.426;2023-11-19T08:23:24;97490.03;;;6.09;59.18
83664;BME280;73634;47.068;15.426;2023-11-19T08:25:50;97490.41;;;5.90;59.61
83664;BME280;73634;47.068;15.426;2023-11-19T08:29:34;97453.38;;;10.45;46.77
83664;BME280;73634;47.068;15.426;2023-11-19T08:32:01;97451.03;;;10.20;46.97
83664;BME280;73634;47.068;15.426;2023-11-19T08:34:27;97433.00;;;12.95;40.18
83664;BME280;73634;47.068;15.426;2023-11-19T08:36:52;97442.53;;;12.77;39.02
83664;BME280;73634;47.068;15.426;2023-11-19T08:39:21;97434.03;;;11.42;42.58
83664;BME280;73634;47.068;15.426;2023-11-19T08:41:47;97421.25;;;15.02;35.24
83664;BME280;73634;47.068;15.426;2023-11-19T08:44:13;97428.38;;;14.31;36.42
83664;BME280;73634;47.068;15.426;2023-11-19T08:46:38;97429.69;;;17.67;30.61
83664;BME280;73634;47.068;15.426;2023-11-19T08:49:05;97411.50;;;16.91;30.96
83664;BME280;73634;47.068;15.426;2023-11-19T08:53:44;97413.63;;;16.97;30.58
83664;BME280;73634;47.068;15.426;2023-11-19T08:56:10;97427.56;;;17.81;29.21
83664;BME280;73634;47.068;15.426;2023-11-19T08:58:35;97412.91;;;19.11;26.75
83664;BME280;73634;47.068;15.426;2023-11-19T09:01:00;97402.03;;;18.39;28.27
83664;BME280;73634;47.068;15.426;2023-11-19T09:03:26;97398.72;;;17.52;29.17
83664;BME280;73634;47.068;15.426;2023-11-19T09:05:52;97400.06;;;17.58;28.95
83664;BME280;73634;47.068;15.426;2023-11-19T09:08:18;97397.97;;;18.90;27.25
83664;BME280;73634;47.068;15.426;2023-11-19T09:10:43;97394.34;;;19.47;26.43
83664;BME280;73634;47.068;15.426;2023-11-19T09:15:56;97405.09;;;18.53;27.72
83664;BME280;73634;47.068;15.426;2023-11-19T09:18:28;97417.19;;;16.63;30.77
83664;BME280;73634;47.068;15.426;2023-11-19T09:20:53;97416.97;;;13.51;36.32
83664;BME280;73634;47.068;15.426;2023-11-19T09:23:19;97403.75;;;12.71;38.43
83664;BME280;73634;47.068;15.426;2023-11-19T09:25:45;97401.50;;;11.39;41.81
83664;BME280;73634;47.068;15.426;2023-11-19T09:28:10;97390.75;;;13.43;38.53
83664;BME280;73634;47.068;15.426;2023-11-19T09:30:36;97387.31;;;13.20;38.06
83664;BME280;73634;47.068;15.426;2023-11-19T09:33:01;97381.84;;;15.59;33.44
83664;BME280;73634;47.068;15.426;2023-11-19T09:35:27;97375.31;;;18.04;29.51
83664;BME280;73634;47.068;15.426;2023-11-19T09:40:52;97384.28;;;17.37;29.43
83664;BME280;73634;47.068;15.426;2023-11-19T09:43:17;97379.38;;;16.18;32.05
83664;BME280;73634;47.068;15.426;2023-11-19T09:45:50;97362.06;;;18.25;28.71
83664;BME280;73634;47.068;15.426;2023-11-19T09:48:19;97354.56;;;19.40;26.88
83664;BME280;73634;47.068;15.426;2023-11-19T09:50:48;97328.59;;;18.50;28.29
83664;BME280;73634;47.068;15.426;2023-11-19T09:53:14;97348.19;;;16.16;31.89
83664;BME280;73634;47.068;15.426;2023-11-19T09:55:43;97345.63;;;16.75;30.56
83664;BME280;73634;47.068;15.426;2023-11-19T09:58:10;97349.97;;;16.71;31.67
83664;BME280;73634;47.068;15.426;2023-11-19T10:00:37;97345.63;;;19.57;26.52
83664;BME280;73634;47.068;15.426;2023-11-19T10:05:24;97368.53;;;15.73;32.42
83664;BME280;73634;47.068;15.426;2023-11-19T10:07:50;97360.41;;;14.48;35.04
83664;BME280;73634;47.068;15.426;2023-11-19T10:10:16;97340.44;;;12.65;39.11
83664;BME280;73634;47.068;15.426;2023-11-19T10:12:45;97337.69;;;11.04;43.21
83664;BME280;73634;47.068;15.426;2023-11-19T10:15:20;97327.19;;;11.09;43.61
83664;BME280;73634;47.068;15.426;2023-11-19T10:17:46;97309.44;;;13.44;39.52
83664;BME280;73634;47.068;15.426;2023-11-19T10:20:12;97309.78;;;14.61;35.48
83664;BME280;73634;47.068;15.426;2023-11-19T10:22:37;97298.41;;;14.75;34.92
83664;BME280;73634;47.068;15.426;2023-11-19T10:27:07;97293.84;;;17.62;30.31
83664;BME280;73634;47.068;15.426;2023-11-19T10:29:38;97286.88;;;18.76;28.45
83664;BME280;73634;47.068;15.426;2023-11-19T10:32:04;97274.63;;;20.66;25.53
83664;BME280;73634;47.068;15.426;2023-11-19T10:34:30;97268.91;;;22.92;22.50
83664;BME280;73634;47.068;15.426;2023-11-19T10:36:55;97263.72;;;23.03;22.11
83664;BME280;73634;47.068;15.426;2023-11-19T10:39:21;97258.53;;;22.01;23.19
83664;BME280;73634;47.068;15.426;2023-11-19T10:41:47;97257.56;;;22.65;22.98
83664;BME280;73634;47.068;15.426;2023-11-19T10:44:12;97249.38;;;24.36;21.13
83664;BME280;73634;47.068;15.426;2023-11-19T10:49:05;97247.84;;;23.84;21.00
83664;BME280;73634;47.068;15.426;2023-11-19T10:53:19;97244.19;;;22.84;22.20
83664;BME280;73634;47.068;15.426;2023-11-19T10:55:47;97241.50;;;23.99;20.48
83664;BME280;73634;47.068;15.426;2023-11-19T10:58:15;97245.13;;;20.63;24.98
83664;BME280;73634;47.068;15.426;2023-11-19T11:00:46;97244.09;;;22.21;23.17
83664;BME280;73634;47.068;15.426;2023-11-19T11:03:20;97247.56;;;21.11;24.70
83664;BME280;73634;47.068;15.426;2023-11-19T11:05:50;97233.66;;;23.28;21.96
83664;BME280;73634;47.068;15.426;2023-11-19T11:08:17;97244.38;;;20.12;25.23
83664;BME280;73634;47.068;15.426;2023-11-19T11:10:45;97234.13;;;19.32;27.05
83664;BME280;73634;47.068;15.426;2023-11-19T11:13:11;97229.81;;;21.11;24.70
83664;BME280;73634;47.068;15.426;2023-11-19T11:18:17;97243.63;;;19.64;26.55
83664;BME280;73634;47.068;15.426;2023-11-19T11:20:46;97247.34;;;20.81;24.98
83664;BME280;73634;47.068;15.426;2023-11-19T11:26:18;97229.56;;;23.75;21.15
83664;BME280;73634;47.068;15.426;2023-11-19T11:28:59;97227.22;;;20.57;24.19
83664;BME280;73634;47.068;15.426;2023-11-19T11:34:21;97213.16;;;22.02;22.85
83664;BME280;73634;47.068;15.426;2023-11-19T11:39:22;97198.34;;;22.24;22.75
83664;BME280;73634;47.068;15.426;2023-11-19T11:43:44;97186.88;;;22.76;22.20
83664;BME280;73634;47.068;15.426;2023-11-19T11:49:02;97187.75;;;22.87;22.50
83664;BME280;73634;47.068;15.426;2023-11-19T11:54:09;97185.66;;;18.25;28.79
83664;BME280;73634;47.068;15.426;2023-11-19T11:56:38;97172.19;;;20.82;25.60
83664;BME280;73634;47.068;15.426;2023-11-19T11:59:07;97168.78;;;23.70;21.71
83664;BME280;73634;47.068;15.426;2023-11-19T12:01:33;97168.66;;;23.52;20.84
83664;BME280;73634;47.068;15.426;2023-11-19T12:03:58;97174.25;;;18.09;28.91
83664;BME280;73634;47.068;15.426;2023-11-19T12:10:26;97155.94;;;21.45;24.46
83664;BME280;73634;47.068;15.426;2023-11-19T12:13:01;97164.69;;;22.91;22.20
83664;BME280;73634;47.068;15.426;2023-11-19T12:15:27;97154.66;;;23.55;21.67
83664;BME280;73634;47.068;15.426;2023-11-19T12:17:56;97160.31;;;25.06;19.59
83664;BME280;73634;47.068;15.426;2023-11-19T12:20:23;97148.72;;;22.21;22.92
83664;BME280;73634;47.068;15.426;2023-11-19T12:22:49;97147.59;;;21.95;23.95
83664;BME280;73634;47.068;15.426;2023-11-19T12:25:16;97143.69;;;21.86;23.63
83664;BME280;73634;47.068;15.426;2023-11-19T12:30:09;97144.44;;;23.57;21.77
83664;BME280;73634;47.068;15.426;2023-11-19T12:32:39;97136.28;;;22.92;22.58
83664;BME280;73634;47.068;15.426;2023-11-19T12:35:05;97147.59;;;21.69;24.03
83664;BME280;73634;47.068;15.426;2023-11-19T12:37:30;97136.31;;;22.95;22.53
83664;BME280;73634;47.068;15.426;2023-11-19T12:39:57;97141.84;;;22.50;23.05
83664;BME280;73634;47.068;15.426;2023-11-19T12:42:44;97139.56;;;21.88;24.15
83664;BME280;73634;47.068;15.426;2023-11-19T12:45:09;97136.59;;;20.76;25.52
83664;BME280;73634;47.068;15.426;2023-11-19T12:47:42;97146.31;;;19.79;27.21
83664;BME280;73634;47.068;15.426;2023-11-19T12:52:56;97138.19;;;18.93;28.64
83664;BME280;73634;47.068;15.426;2023-11-19T12:55:29;97133.78;;;18.41;29.92
83664;BME280;73634;47.068;15.426;2023-11-19T12:57:56;97137.81;;;20.05;26.85
83664;BME280;73634;47.068;15.426;2023-11-19T13:00:24;97130.47;;;18.44;29.30
83664;BME280;73634;47.068;15.426;2023-11-19T13:02:56;97135.31;;;19.92;27.46
83664;BME280;73634;47.068;15.426;2023-11-19T13:05:33;97135.28;;;16.92;32.54
83664;BME280;73634;47.068;15.426;2023-11-19T13:08:00;97139.81;;;16.71;32.29
83664;BME280;73634;47.068;15.426;2023-11-19T13:10:26;97140.56;;;16.51;33.22
83664;BME280;73634;47.068;15.426;2023-11-19T13:13:08;97147.44;;;16.01;33.62
83664;BME280;73634;47.068;15.426;2023-11-19T13:17:30;97129.84;;;16.64;32.76
83664;BME280;73634;47.068;15.426;2023-11-19T13:19:56;97133.41;;;17.75;30.97
83664;BME280;73634;47.068;15.426;2023-11-19T13:22:22;97132.41;;;19.97;27.25
83664;BME280;73634;47.068;15.426;2023-11-19T13:24:47;97138.22;;;20.07;26.47
83664;BME280;73634;47.068;15.426;2023-11-19T13:27:13;97127.91;;;20.56;26.24
83664;BME280;73634;47.068;15.426;2023-11-19T13:29:38;97118.81;;;20.34;25.56
83664;BME280;73634;47.068;15.426;2023-11-19T13:32:04;97129.75;;;17.30;30.26
83664;BME280;73634;47.068;15.426;2023-11-19T13:34:31;97133.72;;;17.73;29.81
83664;BME280;73634;47.068;15.426;2023-11-19T13:36:56;97130.88;;;17.78;30.03
83664;BME280;73634;47.068;15.426;2023-11-19T13:41:57;97125.94;;;17.89;29.61
83664;BME280;73634;47.068;15.426;2023-11-19T13:44:22;97143.56;;;17.40;30.83
83664;BME280;73634;47.068;15.426;2023-11-19T13:46:48;97137.00;;;16.76;31.84
83664;BME280;73634;47.068;15.426;2023-11-19T13:49:13;97140.91;;;17.27;31.34
83664;BME280;73634;47.068;15.426;2023-11-19T13:51:39;97145.19;;;18.45;29.88
83664;BME280;73634;47.068;15.426;2023-11-19T13:54:04;97148.38;;;17.62;31.16
83664;BME280;73634;47.068;15.426;2023-11-19T13:56:30;97133.28;;;17.59;31.53
83664;BME280;73634;47.068;15.426;2023-11-19T13:58:55;97132.59;;;17.13;31.83
83664;BME280;73634;47.068;15.426;2023-11-19T14:01:20;97134.31;;;16.22;34.39
83664;BME280;73634;47.068;15.426;2023-11-19T14:05:26;97128.28;;;16.01;35.06
83664;BME280;73634;47.068;15.426;2023-11-19T14:07:52;97128.50;;;16.17;34.71
83664;BME280;73634;47.068;15.426;2023-11-19T14:10:19;97136.31;;;17.12;32.94
83664;BME280;73634;47.068;15.426;2023-11-19T14:12:44;97134.94;;;18.28;30.87
83664;BME280;73634;47.068;15.426;2023-11-19T14:15:10;97141.13;;;19.04;29.40
83664;BME280;73634;47.068;15.426;2023-11-19T14:17:38;97136.44;;;19.13;29.34
83664;BME280;73634;47.068;15.426;2023-11-19T14:20:05;97149.72;;;15.82;34.44
83664;BME280;73634;47.068;15.426;2023-11-19T14:22:41;97143.78;;;16.56;34.11
83664;BME280;73634;47.068;15.426;2023-11-19T14:25:08;97141.56;;;17.24;32.57
83664;BME280;73634;47.068;15.426;2023-11-19T14:29:25;97148.28;;;16.35;34.37
83664;BME280;73634;47.068;15.426;2023-11-19T14:31:57;97144.50;;;16.98;33.36
83664;BME280;73634;47.068;15.426;2023-11-19T14:34:24;97155.91;;;14.84;36.76
83664;BME280;73634;47.068;15.426;2023-11-19T14:36:50;97156.69;;;14.42;38.11